createdAt,value
2022-11-20T00:00:01.065Z,-3.41
2022-11-20T00:02:02.439Z,-3.34
2022-11-20T00:04:04.035Z,-3.31
2022-11-20T00:06:07.805Z,-3.22
2022-11-20T00:08:09.159Z,-3.19
2022-11-20T00:10:10.615Z,-3.18
2022-11-20T00:12:12.016Z,-3.14
2022-11-20T00:14:13.376Z,-3.11
2022-11-20T00:16:17.303Z,-3.02
2022-11-20T00:18:18.719Z,-2.93
2022-11-20T00:20:20.208Z,-2.86
2022-11-20T00:22:21.627Z,-2.85
2022-11-20T00:24:23.001Z,-2.80
2022-11-20T00:26:26.387Z,-2.73
2022-11-20T00:28:27.739Z,-2.68
2022-11-20T00:30:29.117Z,-2.62
2022-11-20T00:32:31.208Z,-2.58
2022-11-20T00:34:32.616Z,-2.55
2022-11-20T00:36:34.929Z,-2.50
2022-11-20T00:38:36.960Z,-2.46
2022-11-20T00:40:38.320Z,-2.42
2022-11-20T00:42:39.722Z,-2.38
2022-11-20T00:44:41.130Z,-2.31
2022-11-20T00:46:42.493Z,-2.28
2022-11-20T00:48:44.088Z,-2.20
2022-11-20T00:50:45.455Z,-2.20
2022-11-20T00:52:46.812Z,-2.16
2022-11-20T00:54:48.183Z,-2.13
2022-11-20T00:56:49.655Z,-2.09
2022-11-20T00:58:51.048Z,-2.08
2022-11-20T01:00:57.501Z,-2.02
2022-11-20T01:02:59.051Z,-2.00
2022-11-20T01:05:00.395Z,-1.95
2022-11-20T01:07:01.847Z,-1.92
2022-11-20T01:09:12.765Z,-1.89
2022-11-20T01:11:23.185Z,-1.87
2022-11-20T01:13:42.544Z,-1.83
2022-11-20T01:15:43.938Z,-1.78
2022-11-20T01:17:45.297Z,-1.77
2022-11-20T01:19:51.437Z,-1.74
2022-11-20T01:21:54.500Z,-1.71
2022-11-20T01:23:55.990Z,-1.71
2022-11-20T01:25:57.359Z,-1.64
2022-11-20T01:27:58.741Z,-1.62
2022-11-20T01:30:01.435Z,-1.59
2022-11-20T01:32:03.029Z,-1.56
2022-11-20T01:34:07.455Z,-1.52
2022-11-20T01:36:10.124Z,-1.48
2022-11-20T01:38:11.502Z,-1.45
2022-11-20T01:40:12.939Z,-1.40
2022-11-20T01:42:33.034Z,-1.37
2022-11-20T01:44:51.363Z,-1.35
2022-11-20T01:47:02.771Z,-1.32
2022-11-20T01:49:16.264Z,-1.28
2022-11-20T01:51:42.819Z,-1.24
2022-11-20T01:53:44.916Z,-1.23
2022-11-20T01:55:52.376Z,-1.20
2022-11-20T01:57:53.900Z,-1.19
2022-11-20T02:00:00.876Z,-1.17
2022-11-20T02:02:07.580Z,-1.17
2022-11-20T02:06:50.901Z,-1.17
2022-11-20T02:08:53.434Z,-1.13
2022-11-20T02:10:54.947Z,-1.10
2022-11-20T02:13:16.046Z,-1.09
2022-11-20T02:15:17.436Z,-1.09
2022-11-20T02:17:18.847Z,-1.06
2022-11-20T02:19:28.973Z,-1.08
2022-11-20T02:21:51.156Z,-1.08
2022-11-20T02:23:58.670Z,-1.07
2022-11-20T02:26:03.451Z,-1.07
2022-11-20T02:28:06.031Z,-1.03
2022-11-20T02:30:11.922Z,-1.04
2022-11-20T02:32:20.852Z,-0.98
2022-11-20T02:34:22.323Z,-0.96
2022-11-20T02:36:27.336Z,-0.98
2022-11-20T02:38:28.757Z,-0.93
2022-11-20T02:40:30.459Z,-0.94
2022-11-20T02:42:31.841Z,-0.88
2022-11-20T02:44:33.212Z,-0.87
2022-11-20T02:47:24.520Z,-0.86
2022-11-20T02:49:26.308Z,-0.94
2022-11-20T02:51:27.743Z,-0.92
2022-11-20T02:53:29.347Z,-0.87
2022-11-20T02:55:31.325Z,-0.84
2022-11-20T02:57:32.738Z,-0.83
2022-11-20T02:59:34.094Z,-0.86
2022-11-20T03:01:35.744Z,-0.77
2022-11-20T03:03:37.142Z,-0.77
2022-11-20T03:05:38.508Z,-0.73
2022-11-20T03:07:39.945Z,-0.71
2022-11-20T03:09:41.470Z,-0.69
2022-11-20T03:11:42.834Z,-0.69
2022-11-20T03:13:44.296Z,-0.64
2022-11-20T03:15:45.689Z,-0.59
2022-11-20T03:17:47.044Z,-0.54
2022-11-20T03:19:48.479Z,-0.54
2022-11-20T03:21:50.008Z,-0.52
2022-11-20T03:23:51.471Z,-0.50
2022-11-20T03:25:52.976Z,-0.44
2022-11-20T03:27:55.265Z,-0.43
2022-11-20T03:29:56.636Z,-0.32
2022-11-20T03:31:58.019Z,-0.30
2022-11-20T03:34:00.578Z,-0.30
2022-11-20T03:36:06.938Z,-0.25
2022-11-20T03:38:08.298Z,-0.25
2022-11-20T03:40:10.211Z,-0.24
2022-11-20T03:42:30.243Z,-0.24
2022-11-20T03:44:31.581Z,-0.19
2022-11-20T03:46:33.370Z,-0.18
2022-11-20T03:48:34.811Z,-0.16
2022-11-20T03:50:36.149Z,-0.18
2022-11-20T03:52:37.567Z,-0.17
2022-11-20T03:54:38.928Z,-0.15
2022-11-20T03:56:40.502Z,-0.16
2022-11-20T03:58:47.984Z,-0.17
2022-11-20T04:00:49.366Z,-0.21
2022-11-20T04:02:50.764Z,-0.20
2022-11-20T04:04:52.200Z,-0.16
2022-11-20T04:06:53.613Z,-0.23
2022-11-20T04:08:59.214Z,-0.18
2022-11-20T04:11:34.031Z,-0.18
2022-11-20T04:13:35.461Z,-0.15
2022-11-20T04:15:38.584Z,-0.20
2022-11-20T04:17:40.129Z,-0.19
2022-11-20T04:19:41.468Z,-0.19
2022-11-20T04:21:44.618Z,-0.16
2022-11-20T04:23:45.984Z,-0.17
2022-11-20T04:25:47.328Z,-0.16
2022-11-20T04:27:48.702Z,-0.15
2022-11-20T04:29:50.043Z,-0.17
2022-11-20T04:31:51.399Z,-0.13
2022-11-20T04:33:53.169Z,-0.09
2022-11-20T04:35:54.535Z,-0.11
2022-11-20T04:37:55.916Z,-0.11
2022-11-20T04:39:57.291Z,-0.11
2022-11-20T04:42:17.248Z,-0.08
2022-11-20T04:44:18.669Z,-0.06
2022-11-20T04:46:21.559Z,-0.04
2022-11-20T04:48:23.096Z,-0.01
2022-11-20T04:50:24.502Z,0.00
2022-11-20T04:52:25.844Z,-0.01
2022-11-20T04:54:27.184Z,0.00
2022-11-20T04:56:28.636Z,0.02
2022-11-20T04:58:30.073Z,0.02
2022-11-20T05:00:31.480Z,-0.01
2022-11-20T05:02:33.027Z,0.03
2022-11-20T05:04:34.478Z,0.03
2022-11-20T05:06:35.845Z,0.04
2022-11-20T05:08:37.333Z,0.04
2022-11-20T05:10:38.817Z,0.01
2022-11-20T05:12:40.220Z,0.00
2022-11-20T05:14:41.661Z,0.04
2022-11-20T05:16:43.133Z,0.05
2022-11-20T05:18:44.876Z,0.00
2022-11-20T05:20:46.234Z,0.02
2022-11-20T05:22:47.588Z,0.05
2022-11-20T05:24:48.937Z,0.06
2022-11-20T05:26:50.289Z,0.06
2022-11-20T05:28:52.497Z,0.02
2022-11-20T05:30:54.124Z,0.01
2022-11-20T05:32:55.487Z,0.03
2022-11-20T05:34:56.861Z,0.01
2022-11-20T05:36:58.259Z,0.02
2022-11-20T05:39:01.794Z,-0.03
2022-11-20T05:41:11.395Z,-0.08
2022-11-20T05:43:12.777Z,-0.12
2022-11-20T05:45:16.423Z,-0.13
2022-11-20T05:47:17.849Z,-0.13
2022-11-20T05:49:19.371Z,-0.16
2022-11-20T05:51:20.920Z,-0.17
2022-11-20T05:53:22.368Z,-0.17
2022-11-20T05:55:23.763Z,-0.21
2022-11-20T05:57:25.181Z,-0.22
2022-11-20T05:59:26.571Z,-0.27
2022-11-20T06:01:27.939Z,-0.32
2022-11-20T06:03:29.337Z,-0.38
2022-11-20T06:05:31.148Z,-0.42
2022-11-20T06:07:32.609Z,-0.45
2022-11-20T06:09:34.881Z,-0.51
2022-11-20T06:11:36.326Z,-0.48
2022-11-20T06:13:41.794Z,-0.48
2022-11-20T06:15:49.991Z,-0.53
2022-11-20T06:17:55.049Z,-0.50
2022-11-20T06:19:56.466Z,-0.58
2022-11-20T06:21:57.826Z,-0.68
2022-11-20T06:23:59.224Z,-0.63
2022-11-20T06:26:09.225Z,-0.65
2022-11-20T06:28:10.705Z,-0.67
2022-11-20T06:30:12.799Z,-0.71
2022-11-20T06:32:14.235Z,-0.63
2022-11-20T06:34:15.698Z,-0.62
2022-11-20T06:36:19.747Z,-0.67
2022-11-20T06:38:21.310Z,-0.69
2022-11-20T06:40:22.665Z,-0.74
2022-11-20T06:42:24.106Z,-0.75
2022-11-20T06:44:25.648Z,-0.81
2022-11-20T06:46:27.086Z,-0.82
2022-11-20T06:48:29.222Z,-0.87
2022-11-20T06:50:30.755Z,-0.88
2022-11-20T06:52:32.153Z,-0.91
2022-11-20T06:54:33.503Z,-0.93
2022-11-20T06:56:34.948Z,-0.94
2022-11-20T06:58:37.818Z,-0.97
2022-11-20T07:00:39.316Z,-1.03
2022-11-20T07:02:40.761Z,-1.06
2022-11-20T07:04:42.138Z,-1.11
2022-11-20T07:06:43.521Z,-1.13
2022-11-20T07:08:44.988Z,-1.17
2022-11-20T07:10:46.406Z,-1.17
2022-11-20T07:12:51.823Z,-1.22
2022-11-20T07:14:53.193Z,-1.23
2022-11-20T07:16:54.620Z,-1.24
2022-11-20T07:18:56.032Z,-1.25
2022-11-20T07:21:01.856Z,-1.26
2022-11-20T07:23:03.301Z,-1.27
2022-11-20T07:25:05.140Z,-1.28
2022-11-20T07:27:06.567Z,-1.27
2022-11-20T07:29:07.946Z,-1.28
2022-11-20T07:31:18.736Z,-1.24
2022-11-20T07:33:21.414Z,-1.23
2022-11-20T07:35:23.760Z,-1.21
2022-11-20T07:37:25.191Z,-1.21
2022-11-20T07:39:26.638Z,-1.20
2022-11-20T07:41:28.677Z,-1.16
2022-11-20T07:43:30.715Z,-1.07
2022-11-20T07:45:32.135Z,-1.06
2022-11-20T07:47:37.556Z,-1.00
2022-11-20T07:49:38.977Z,-0.96
2022-11-20T07:51:40.376Z,-0.92
2022-11-20T07:53:41.818Z,-0.86
2022-11-20T07:55:43.169Z,-0.81
2022-11-20T07:57:44.696Z,-0.79
2022-11-20T07:59:46.952Z,-0.78
2022-11-20T08:01:48.307Z,-0.65
2022-11-20T08:03:49.768Z,-0.57
2022-11-20T08:05:51.190Z,-0.62
2022-11-20T08:07:52.600Z,-0.63
2022-11-20T08:09:54.006Z,-0.61
2022-11-20T08:12:14.220Z,-0.60
2022-11-20T08:14:16.300Z,-0.54
2022-11-20T08:16:17.652Z,-0.53
2022-11-20T08:18:34.402Z,-0.53
2022-11-20T08:20:36.422Z,-0.52
2022-11-20T08:22:37.777Z,-0.53
2022-11-20T08:24:39.206Z,-0.53
2022-11-20T08:26:41.925Z,-0.47
2022-11-20T08:28:43.352Z,-0.48
2022-11-20T08:30:45.165Z,-0.43
2022-11-20T08:32:46.593Z,-0.44
2022-11-20T08:34:47.996Z,-0.38
2022-11-20T08:36:49.377Z,-0.29
2022-11-20T08:38:53.200Z,-0.24
2022-11-20T08:41:18.977Z,-0.20
2022-11-20T08:43:20.361Z,-0.12
2022-11-20T08:45:21.785Z,-0.13
2022-11-20T08:47:23.170Z,-0.08
2022-11-20T08:49:24.785Z,-0.04
2022-11-20T08:51:26.271Z,0.02
2022-11-20T08:53:28.511Z,0.06
2022-11-20T08:55:29.902Z,0.10
2022-11-20T08:57:35.615Z,0.15
2022-11-20T09:00:04.556Z,0.14
2022-11-20T09:01:59.324Z,0.17
2022-11-20T09:04:00.848Z,0.20
2022-11-20T09:06:05.369Z,0.23
2022-11-20T09:08:06.776Z,0.30
2022-11-20T09:10:23.590Z,0.35
2022-11-20T09:12:25.705Z,0.39
2022-11-20T09:14:29.997Z,0.48
2022-11-20T09:16:31.386Z,0.58
2022-11-20T09:18:33.743Z,0.57
2022-11-20T09:20:35.244Z,0.61
2022-11-20T09:22:40.349Z,0.63
2022-11-20T09:24:42.697Z,0.68
2022-11-20T09:26:44.476Z,0.71
2022-11-20T09:28:45.911Z,0.73
2022-11-20T09:30:47.306Z,0.78
2022-11-20T09:32:48.691Z,0.81
2022-11-20T09:34:50.351Z,0.86
2022-11-20T09:36:51.841Z,0.91
2022-11-20T09:38:53.466Z,0.91
2022-11-20T09:41:03.246Z,0.95
2022-11-20T09:43:04.582Z,0.99
2022-11-20T09:45:27.216Z,1.00
2022-11-20T09:47:56.069Z,0.98
2022-11-20T09:50:21.267Z,1.09
2022-11-20T09:52:47.222Z,1.15
2022-11-20T09:54:50.230Z,1.21
2022-11-20T09:56:56.029Z,1.29
2022-11-20T09:59:03.080Z,1.32
2022-11-20T10:01:16.387Z,1.37
2022-11-20T10:03:33.817Z,1.39
2022-11-20T10:05:44.464Z,1.35
2022-11-20T10:08:21.138Z,1.34
2022-11-20T10:10:41.036Z,1.42
2022-11-20T10:13:08.794Z,1.56
2022-11-20T10:15:20.129Z,1.68
2022-11-20T10:17:56.209Z,1.80
2022-11-20T10:20:26.871Z,1.85
2022-11-20T10:22:47.953Z,1.98
2022-11-20T10:25:15.035Z,2.10
2022-11-20T10:27:22.422Z,2.13
2022-11-20T10:29:34.110Z,2.16
2022-11-20T10:31:37.159Z,2.28
2022-11-20T10:34:10.547Z,2.39
2022-11-20T10:36:17.904Z,2.45
2022-11-20T10:38:27.101Z,2.59
2022-11-20T10:40:36.260Z,2.71
2022-11-20T10:42:42.955Z,2.79
2022-11-20T10:45:06.619Z,2.76
2022-11-20T10:47:15.494Z,2.85
2022-11-20T10:49:20.655Z,2.89
2022-11-20T10:51:37.924Z,3.01
2022-11-20T10:53:54.574Z,3.11
2022-11-20T10:56:05.873Z,3.21
2022-11-20T10:58:40.454Z,3.20
2022-11-20T11:00:41.934Z,3.28
2022-11-20T11:02:54.528Z,3.35
2022-11-20T11:04:56.038Z,3.37
2022-11-20T11:07:10.968Z,3.35
2022-11-20T11:09:20.870Z,3.31
2022-11-20T11:11:29.656Z,3.28
2022-11-20T11:13:31.800Z,3.09
2022-11-20T11:15:41.950Z,3.25
2022-11-20T11:17:49.554Z,3.23
2022-11-20T11:20:18.993Z,3.31
2022-11-20T11:22:20.357Z,3.47
2022-11-20T11:24:41.661Z,3.38
2022-11-20T11:27:16.493Z,3.45
2022-11-20T11:29:19.332Z,3.42
2022-11-20T11:31:38.944Z,3.54
2022-11-20T11:33:40.272Z,3.56
2022-11-20T11:35:51.740Z,3.63
2022-11-20T11:38:05.663Z,3.60
2022-11-20T11:40:27.315Z,3.47
2022-11-20T11:42:30.071Z,3.63
2022-11-20T11:44:53.220Z,3.68
2022-11-20T11:46:56.446Z,3.64
2022-11-20T11:49:04.616Z,3.77
2022-11-20T11:51:09.441Z,3.83
2022-11-20T11:53:17.547Z,3.80
2022-11-20T11:55:43.360Z,3.88
2022-11-20T11:57:55.356Z,3.85
2022-11-20T12:00:11.304Z,3.82
2022-11-20T12:02:32.286Z,3.90
2022-11-20T12:04:42.626Z,3.95
2022-11-20T12:06:47.716Z,3.94
2022-11-20T12:08:59.954Z,3.94
2022-11-20T12:11:07.300Z,3.90
2022-11-20T12:13:35.901Z,4.00
2022-11-20T12:15:42.934Z,4.02
2022-11-20T12:17:44.350Z,4.13
2022-11-20T12:19:45.857Z,4.25
2022-11-20T12:22:03.268Z,4.45
2022-11-20T12:24:27.416Z,4.64
2022-11-20T12:26:43.151Z,4.79
2022-11-20T12:29:00.501Z,4.92
2022-11-20T12:31:29.123Z,4.67
2022-11-20T12:33:41.851Z,4.50
2022-11-20T12:35:56.993Z,4.52
2022-11-20T12:38:20.246Z,4.53
2022-11-20T12:40:24.265Z,4.63
2022-11-20T12:42:44.255Z,4.57
2022-11-20T12:45:11.188Z,4.53
2022-11-20T12:47:15.506Z,4.49
2022-11-20T12:49:45.496Z,4.44
2022-11-20T12:52:21.490Z,4.45
2022-11-20T12:54:53.795Z,4.34
2022-11-20T12:57:15.588Z,4.31
2022-11-20T12:59:38.954Z,4.32
2022-11-20T13:01:53.623Z,4.22
2022-11-20T13:03:58.117Z,4.05
2022-11-20T13:06:16.511Z,4.01
2022-11-20T13:08:24.422Z,4.03
2022-11-20T13:10:34.981Z,4.10
2022-11-20T13:12:50.715Z,4.09
2022-11-20T13:15:05.707Z,3.99
2022-11-20T13:17:23.156Z,3.99
2022-11-20T13:19:25.167Z,3.97
2022-11-20T13:21:41.269Z,3.95
2022-11-20T13:23:42.662Z,3.86
2022-11-20T13:25:44.047Z,3.86
2022-11-20T13:27:49.924Z,3.84
2022-11-20T13:30:17.963Z,3.84
2022-11-20T13:32:22.129Z,3.84
2022-11-20T13:34:28.131Z,3.89
2022-11-20T13:36:33.415Z,3.84
2022-11-20T13:38:47.471Z,3.88
2022-11-20T13:40:53.339Z,3.87
2022-11-20T13:42:54.670Z,3.84
2022-11-20T13:45:01.363Z,3.82
2022-11-20T13:47:02.938Z,3.84
2022-11-20T13:49:10.416Z,3.79
2022-11-20T13:51:36.875Z,3.75
2022-11-20T13:54:13.575Z,3.81
2022-11-20T13:56:28.405Z,3.79
2022-11-20T13:58:41.942Z,3.76
2022-11-20T14:00:55.650Z,3.79
2022-11-20T14:03:14.009Z,3.76
2022-11-20T14:05:24.593Z,3.73
2022-11-20T14:07:35.570Z,3.73
2022-11-20T14:09:37.090Z,3.73
2022-11-20T14:11:47.500Z,3.71
2022-11-20T14:14:17.959Z,3.61
2022-11-20T14:16:23.079Z,3.63
2022-11-20T14:18:27.332Z,3.62
2022-11-20T14:20:32.093Z,3.61
2022-11-20T14:22:33.575Z,3.57
2022-11-20T14:24:35.155Z,3.58
2022-11-20T14:26:38.435Z,3.57
2022-11-20T14:28:41.002Z,3.59
2022-11-20T14:30:48.744Z,3.56
2022-11-20T14:32:51.675Z,3.60
2022-11-20T14:34:53.580Z,3.60
2022-11-20T14:37:09.510Z,3.58
2022-11-20T14:39:21.863Z,3.61
2022-11-20T14:41:24.899Z,3.55
2022-11-20T14:43:28.567Z,3.51
2022-11-20T14:45:30.298Z,3.53
2022-11-20T14:47:32.306Z,3.43
2022-11-20T14:49:34.134Z,3.59
2022-11-20T14:51:42.622Z,3.57
2022-11-20T14:53:44.013Z,3.47
2022-11-20T14:55:59.025Z,3.45
2022-11-20T14:58:04.110Z,3.43
2022-11-20T15:00:16.259Z,3.47
2022-11-20T15:02:18.094Z,3.40
2022-11-20T15:04:19.495Z,3.44
2022-11-20T15:06:27.708Z,3.39
2022-11-20T15:08:30.568Z,3.43
2022-11-20T15:10:32.331Z,3.46
2022-11-20T15:12:36.788Z,3.38
2022-11-20T15:14:38.225Z,3.38
2022-11-20T15:16:40.401Z,3.40
2022-11-20T15:18:45.416Z,3.35
2022-11-20T15:20:47.084Z,3.36
2022-11-20T15:22:48.487Z,3.33
2022-11-20T15:24:49.960Z,3.30
2022-11-20T15:26:51.327Z,3.31
2022-11-20T15:28:53.517Z,3.29
2022-11-20T15:30:56.641Z,3.26
2022-11-20T15:32:58.049Z,3.25
2022-11-20T15:34:59.423Z,3.23
2022-11-20T15:37:00.818Z,3.20
2022-11-20T15:39:03.529Z,3.20
2022-11-20T15:41:05.761Z,3.20
2022-11-20T15:43:12.891Z,3.22
2022-11-20T15:45:14.955Z,3.18
2022-11-20T15:47:18.084Z,3.15
2022-11-20T15:49:24.507Z,3.15
2022-11-20T15:51:29.056Z,3.15
2022-11-20T15:53:30.743Z,3.18
2022-11-20T15:55:32.862Z,3.17
2022-11-20T15:57:34.240Z,3.13
2022-11-20T15:59:37.877Z,3.08
2022-11-20T16:01:39.363Z,3.09
2022-11-20T16:03:42.276Z,3.10
2022-11-20T16:05:43.884Z,3.09
2022-11-20T16:07:45.421Z,3.06
2022-11-20T16:09:46.905Z,3.11
2022-11-20T16:11:48.291Z,3.06
2022-11-20T16:14:08.347Z,3.05
2022-11-20T16:16:23.635Z,3.07
2022-11-20T16:18:25.589Z,3.08
2022-11-20T16:20:26.957Z,3.08
2022-11-20T16:22:28.346Z,3.04
2022-11-20T16:24:30.045Z,3.04
2022-11-20T16:26:32.314Z,3.03
2022-11-20T16:28:33.813Z,3.04
2022-11-20T16:30:35.384Z,3.03
2022-11-20T16:32:36.814Z,3.05
2022-11-20T16:34:38.186Z,3.05
2022-11-20T16:36:44.007Z,3.06
2022-11-20T16:38:45.380Z,3.07
2022-11-20T16:40:46.802Z,3.05
2022-11-20T16:42:48.185Z,3.08
2022-11-20T16:44:49.567Z,3.09
2022-11-20T16:46:50.956Z,3.10
2022-11-20T16:49:04.072Z,3.10
2022-11-20T16:51:09.967Z,3.08
2022-11-20T16:53:11.351Z,3.09
2022-11-20T16:55:13.039Z,3.10
2022-11-20T16:57:14.445Z,3.12
2022-11-20T16:59:15.956Z,3.13
2022-11-20T17:01:21.404Z,3.11
2022-11-20T17:03:22.840Z,3.10
2022-11-20T17:05:24.239Z,3.14
2022-11-20T17:07:25.678Z,3.08
2022-11-20T17:09:27.232Z,3.11
2022-11-20T17:11:29.007Z,3.17
2022-11-20T17:13:30.391Z,3.19
2022-11-20T17:15:31.802Z,3.24
2022-11-20T17:17:33.175Z,3.27
2022-11-20T17:19:34.539Z,3.29
2022-11-20T17:21:36.950Z,3.31
2022-11-20T17:23:43.051Z,3.32
2022-11-20T17:25:44.693Z,3.33
2022-11-20T17:27:46.073Z,3.33
2022-11-20T17:29:47.639Z,3.36
2022-11-20T17:31:49.082Z,3.35
2022-11-20T17:33:50.446Z,3.40
2022-11-20T17:35:51.808Z,3.41
2022-11-20T17:37:53.225Z,3.41
2022-11-20T17:39:54.688Z,3.43
2022-11-20T17:42:14.495Z,3.43
2022-11-20T17:44:15.846Z,3.44
2022-11-20T17:46:22.104Z,3.47
2022-11-20T17:48:23.527Z,3.48
2022-11-20T17:50:24.880Z,3.52
2022-11-20T17:52:26.339Z,3.53
2022-11-20T17:54:27.687Z,3.54
2022-11-20T17:56:52.318Z,3.56
2022-11-20T17:58:54.157Z,3.56
2022-11-20T18:00:55.581Z,3.57
2022-11-20T18:02:57.241Z,3.60
2022-11-20T18:04:58.600Z,3.60
2022-11-20T18:06:59.999Z,3.61
2022-11-20T18:09:03.280Z,3.62
2022-11-20T18:11:19.220Z,3.64
2022-11-20T18:13:44.968Z,3.65
2022-11-20T18:15:48.936Z,3.66
2022-11-20T18:17:50.438Z,3.67
2022-11-20T18:20:14.355Z,3.68
2022-11-20T18:22:15.281Z,3.69
2022-11-20T18:24:17.487Z,3.71
2022-11-20T18:26:19.192Z,3.70
2022-11-20T18:28:20.652Z,3.73
2022-11-20T18:30:22.033Z,3.75
2022-11-20T18:32:23.522Z,3.75
2022-11-20T18:34:25.575Z,3.77
2022-11-20T18:36:29.946Z,3.79
2022-11-20T18:38:31.303Z,3.79
2022-11-20T18:40:35.453Z,3.79
2022-11-20T18:42:55.941Z,3.79
2022-11-20T18:44:59.988Z,3.80
2022-11-20T18:47:03.029Z,3.83
2022-11-20T18:49:06.269Z,3.85
2022-11-20T18:51:08.008Z,3.82
2022-11-20T18:53:09.429Z,3.87
2022-11-20T18:55:11.905Z,3.89
2022-11-20T18:57:16.268Z,3.90
2022-11-20T18:59:19.750Z,3.92
2022-11-20T19:01:21.178Z,3.93
2022-11-20T19:03:22.606Z,3.94
2022-11-20T19:05:24.008Z,3.96
2022-11-20T19:07:25.557Z,3.97
2022-11-20T19:09:27.807Z,3.97
2022-11-20T19:11:29.621Z,4.00
2022-11-20T19:13:32.912Z,4.01
2022-11-20T19:15:35.996Z,4.01
2022-11-20T19:17:37.727Z,4.03
2022-11-20T19:19:39.297Z,4.04
2022-11-20T19:21:42.137Z,4.04
2022-11-20T19:23:43.684Z,4.06
2022-11-20T19:25:45.081Z,4.08
2022-11-20T19:27:46.503Z,4.06
2022-11-20T19:29:47.949Z,4.09
2022-11-20T19:31:49.449Z,4.10
2022-11-20T19:33:55.789Z,4.13
2022-11-20T19:35:58.451Z,4.13
2022-11-20T19:38:05.212Z,4.15
2022-11-20T19:40:07.453Z,4.17
2022-11-20T19:42:08.898Z,4.17
2022-11-20T19:44:15.307Z,4.19
2022-11-20T19:46:18.335Z,4.20
2022-11-20T19:48:19.700Z,4.21
2022-11-20T19:50:21.091Z,4.22
2022-11-20T19:52:22.516Z,4.23
2022-11-20T19:54:23.886Z,4.24
2022-11-20T19:56:26.320Z,4.26
2022-11-20T19:58:28.463Z,4.28
2022-11-20T20:00:33.197Z,4.28
2022-11-20T20:02:34.630Z,4.30
2022-11-20T20:04:36.014Z,4.27
2022-11-20T20:06:41.639Z,4.30
2022-11-20T20:08:44.443Z,4.32
2022-11-20T20:10:45.866Z,4.34
2022-11-20T20:12:47.289Z,4.36
2022-11-20T20:14:48.636Z,4.36
2022-11-20T20:16:50.057Z,4.37
2022-11-20T20:18:55.399Z,4.38
2022-11-20T20:21:03.698Z,4.38
2022-11-20T20:23:07.321Z,4.40
2022-11-20T20:25:08.790Z,4.41
2022-11-20T20:27:10.251Z,4.44
2022-11-20T20:29:11.865Z,4.44
2022-11-20T20:31:16.831Z,4.44
2022-11-20T20:33:18.241Z,4.46
2022-11-20T20:35:19.625Z,4.48
2022-11-20T20:37:20.959Z,4.49
2022-11-20T20:39:24.299Z,4.51
2022-11-20T20:41:25.959Z,4.50
2022-11-20T20:43:27.999Z,4.54
2022-11-20T20:45:29.464Z,4.56
2022-11-20T20:47:31.763Z,4.58
2022-11-20T20:49:33.481Z,4.57
2022-11-20T20:51:35.084Z,4.59
2022-11-20T20:53:36.547Z,4.59
2022-11-20T20:55:37.921Z,4.61
2022-11-20T20:57:39.409Z,4.64
2022-11-20T20:59:40.887Z,4.63
2022-11-20T21:01:42.383Z,4.66
2022-11-20T21:03:44.203Z,4.69
2022-11-20T21:05:46.523Z,4.72
2022-11-20T21:08:06.384Z,4.75
2022-11-20T21:10:08.084Z,4.77
2022-11-20T21:12:09.678Z,4.85
2022-11-20T21:14:11.067Z,5.06
2022-11-20T21:16:14.348Z,5.12
2022-11-20T21:18:17.249Z,5.13
2022-11-20T21:20:38.979Z,5.09
2022-11-20T21:22:40.397Z,5.10
2022-11-20T21:24:41.768Z,5.13
2022-11-20T21:26:43.138Z,5.13
2022-11-20T21:28:44.593Z,5.13
2022-11-20T21:30:46.786Z,5.12
2022-11-20T21:32:48.184Z,5.14
2022-11-20T21:34:49.600Z,5.18
2022-11-20T21:36:51.390Z,5.11
2022-11-20T21:38:55.141Z,5.09
2022-11-20T21:40:58.396Z,5.09
2022-11-20T21:42:59.789Z,5.08
2022-11-20T21:45:01.155Z,5.10
2022-11-20T21:47:02.569Z,5.14
2022-11-20T21:49:04.137Z,5.06
2022-11-20T21:51:13.387Z,5.01
2022-11-20T21:53:14.761Z,5.02
2022-11-20T21:55:16.173Z,5.05
2022-11-20T21:57:17.554Z,5.04
2022-11-20T21:59:18.915Z,4.96
2022-11-20T22:01:22.013Z,4.93
2022-11-20T22:03:23.596Z,4.93
2022-11-20T22:05:25.087Z,4.83
2022-11-20T22:07:26.498Z,4.77
2022-11-20T22:09:27.847Z,4.87
2022-11-20T22:11:29.250Z,4.71
2022-11-20T22:13:49.268Z,4.70
2022-11-20T22:16:00.668Z,4.48
2022-11-20T22:18:14.645Z,4.53
2022-11-20T22:20:16.609Z,4.52
2022-11-20T22:22:17.971Z,4.50
2022-11-20T22:24:21.578Z,4.44
2022-11-20T22:26:28.259Z,4.57
2022-11-20T22:28:29.651Z,4.57
2022-11-20T22:30:31.012Z,4.36
2022-11-20T22:32:32.367Z,4.48
2022-11-20T22:34:33.797Z,4.25
2022-11-20T22:36:37.262Z,4.27
2022-11-20T22:38:39.752Z,4.32
2022-11-20T22:40:43.699Z,4.32
2022-11-20T22:42:46.151Z,4.30
2022-11-20T22:44:47.509Z,4.17
2022-11-20T22:46:48.912Z,4.04
2022-11-20T22:49:08.768Z,3.87
2022-11-20T22:51:14.957Z,4.03
2022-11-20T22:53:16.297Z,3.84
2022-11-20T22:55:17.673Z,3.86
2022-11-20T22:57:19.061Z,3.88
2022-11-20T22:59:20.439Z,3.91
2022-11-20T23:01:23.600Z,3.75
2022-11-20T23:03:25.065Z,3.79
2022-11-20T23:05:26.453Z,3.79
2022-11-20T23:07:27.981Z,3.77
2022-11-20T23:09:29.370Z,3.80
2022-11-20T23:11:32.068Z,3.76
2022-11-20T23:13:34.504Z,3.78
2022-11-20T23:15:35.835Z,3.70
2022-11-20T23:17:37.291Z,3.69
2022-11-20T23:19:38.673Z,3.56
2022-11-20T23:21:41.276Z,3.51
2022-11-20T23:23:43.691Z,3.55
2022-11-20T23:25:45.109Z,3.39
2022-11-20T23:27:46.505Z,3.38
2022-11-20T23:29:47.991Z,3.31
2022-11-20T23:31:49.366Z,3.26
2022-11-20T23:33:51.167Z,3.29
2022-11-20T23:35:53.116Z,3.37
2022-11-20T23:37:54.483Z,3.30
2022-11-20T23:39:55.848Z,3.24
2022-11-20T23:41:57.210Z,2.94
2022-11-20T23:43:58.581Z,3.08
2022-11-20T23:46:01.498Z,3.18
2022-11-20T23:48:02.892Z,3.12
2022-11-20T23:50:04.571Z,3.06
2022-11-20T23:52:05.999Z,2.81
2022-11-20T23:54:07.547Z,2.93
2022-11-20T23:56:08.996Z,2.81
2022-11-20T23:58:10.367Z,2.55
